sensor_id;sensor_type;location;lat;lon;timestamp;temperature;humidity
15991;DHT22;8100;50.994;4.538;2023-08-08T00:01:36;13.50;99.90
15991;DHT22;8100;50.994;4.538;2023-08-08T00:04:26;13.60;99.90
15991;DHT22;8100;50.994;4.538;2023-08-08T00:07:13;13.50;99.90
15991;DHT22;8100;50.994;4.538;2023-08-08T00:10:01;13.50;99.90
15991;DHT22;8100;50.994;4.538;2023-08-08T00:12:48;13.40;99.90
15991;DHT22;8100;50.994;4.538;2023-08-08T00:15:36;13.40;99.90
15991;DHT22;8100;50.994;4.538;2023-08-08T00:18:23;13.40;99.90
15991;DHT22;8100;50.994;4.538;2023-08-08T00:21:12;13.30;99.90
15991;DHT22;8100;50.994;4.538;2023-08-08T00:23:59;13.30;99.90
15991;DHT22;8100;50.994;4.538;2023-08-08T00:26:46;13.30;99.90
15991;DHT22;8100;50.994;4.538;2023-08-08T00:29:34;13.30;99.90
15991;DHT22;8100;50.994;4.538;2023-08-08T00:32:21;13.30;99.90
15991;DHT22;8100;50.994;4.538;2023-08-08T00:35:09;13.30;99.90
15991;DHT22;8100;50.994;4.538;2023-08-08T00:37:58;13.30;99.90
15991;DHT22;8100;50.994;4.538;2023-08-08T00:40:45;13.30;99.90
15991;DHT22;8100;50.994;4.538;2023-08-08T00:43:32;13.30;99.90
15991;DHT22;8100;50.994;4.538;2023-08-08T00:46:21;13.30;99.90
15991;DHT22;8100;50.994;4.538;2023-08-08T00:49:10;13.30;99.90
15991;DHT22;8100;50.994;4.538;2023-08-08T00:51:57;13.20;99.90
15991;DHT22;8100;50.994;4.538;2023-08-08T00:54:46;13.10;99.90
15991;DHT22;8100;50.994;4.538;2023-08-08T00:57:33;13.10;99.90
15991;DHT22;8100;50.994;4.538;2023-08-08T01:00:24;13.20;99.90
15991;DHT22;8100;50.994;4.538;2023-08-08T01:03:11;13.20;99.90
15991;DHT22;8100;50.994;4.538;2023-08-08T01:06:02;13.20;99.90
15991;DHT22;8100;50.994;4.538;2023-08-08T01:08:55;13.20;99.90
15991;DHT22;8100;50.994;4.538;2023-08-08T01:11:46;13.00;99.90
15991;DHT22;8100;50.994;4.538;2023-08-08T01:14:36;13.10;99.90
15991;DHT22;8100;50.994;4.538;2023-08-08T01:17:24;13.20;99.90
15991;DHT22;8100;50.994;4.538;2023-08-08T01:20:14;13.00;99.90
15991;DHT22;8100;50.994;4.538;2023-08-08T01:23:09;13.10;99.90
15991;DHT22;8100;50.994;4.538;2023-08-08T01:25:59;13.10;99.90
15991;DHT22;8100;50.994;4.538;2023-08-08T01:28:47;13.00;99.90
15991;DHT22;8100;50.994;4.538;2023-08-08T01:31:34;13.10;99.90
15991;DHT22;8100;50.994;4.538;2023-08-08T01:34:22;12.90;99.90
15991;DHT22;8100;50.994;4.538;2023-08-08T01:37:13;12.90;99.90
15991;DHT22;8100;50.994;4.538;2023-08-08T01:40:04;13.00;99.90
15991;DHT22;8100;50.994;4.538;2023-08-08T01:42:53;12.90;99.90
15991;DHT22;8100;50.994;4.538;2023-08-08T01:45:41;13.00;99.90
15991;DHT22;8100;50.994;4.538;2023-08-08T01:48:30;13.00;99.90
15991;DHT22;8100;50.994;4.538;2023-08-08T01:51:17;12.80;99.90
15991;DHT22;8100;50.994;4.538;2023-08-08T01:54:04;13.00;99.90
15991;DHT22;8100;50.994;4.538;2023-08-08T01:56:52;13.00;99.90
15991;DHT22;8100;50.994;4.538;2023-08-08T01:59:40;13.00;99.90
15991;DHT22;8100;50.994;4.538;2023-08-08T02:02:28;13.00;99.90
15991;DHT22;8100;50.994;4.538;2023-08-08T02:05:15;12.80;99.90
15991;DHT22;8100;50.994;4.538;2023-08-08T02:08:02;13.00;99.90
15991;DHT22;8100;50.994;4.538;2023-08-08T02:10:50;12.80;99.90
15991;DHT22;8100;50.994;4.538;2023-08-08T02:13:37;13.00;99.90
15991;DHT22;8100;50.994;4.538;2023-08-08T02:16:26;12.90;99.90
15991;DHT22;8100;50.994;4.538;2023-08-08T02:19:13;12.90;99.90
15991;DHT22;8100;50.994;4.538;2023-08-08T02:22:02;12.90;99.90
15991;DHT22;8100;50.994;4.538;2023-08-08T02:24:49;12.90;99.90
15991;DHT22;8100;50.994;4.538;2023-08-08T02:27:36;12.90;99.90
15991;DHT22;8100;50.994;4.538;2023-08-08T02:30:24;12.90;99.90
15991;DHT22;8100;50.994;4.538;2023-08-08T02:33:13;12.70;99.90
15991;DHT22;8100;50.994;4.538;2023-08-08T02:36:00;12.70;99.90
15991;DHT22;8100;50.994;4.538;2023-08-08T02:38:48;12.80;99.90
15991;DHT22;8100;50.994;4.538;2023-08-08T02:41:35;12.70;99.90
15991;DHT22;8100;50.994;4.538;2023-08-08T02:44:23;12.70;99.90
15991;DHT22;8100;50.994;4.538;2023-08-08T02:47:10;12.60;99.90
15991;DHT22;8100;50.994;4.538;2023-08-08T02:49:58;12.70;99.90
15991;DHT22;8100;50.994;4.538;2023-08-08T02:52:46;12.60;99.90
15991;DHT22;8100;50.994;4.538;2023-08-08T02:55:33;12.50;99.90
15991;DHT22;8100;50.994;4.538;2023-08-08T02:58:20;12.50;99.90
15991;DHT22;8100;50.994;4.538;2023-08-08T03:01:07;12.70;99.90
15991;DHT22;8100;50.994;4.538;2023-08-08T03:03:55;12.70;99.90
15991;DHT22;8100;50.994;4.538;2023-08-08T03:06:43;12.70;99.90
15991;DHT22;8100;50.994;4.538;2023-08-08T03:09:31;12.80;99.90
15991;DHT22;8100;50.994;4.538;2023-08-08T03:12:18;12.70;99.90
15991;DHT22;8100;50.994;4.538;2023-08-08T03:15:06;12.50;99.90
15991;DHT22;8100;50.994;4.538;2023-08-08T03:17:54;12.50;99.90
15991;DHT22;8100;50.994;4.538;2023-08-08T03:20:41;12.40;99.90
15991;DHT22;8100;50.994;4.538;2023-08-08T03:23:30;12.60;99.90
15991;DHT22;8100;50.994;4.538;2023-08-08T03:26:17;12.40;99.90
15991;DHT22;8100;50.994;4.538;2023-08-08T03:29:05;12.60;99.90
15991;DHT22;8100;50.994;4.538;2023-08-08T03:31:55;12.40;99.90
15991;DHT22;8100;50.994;4.538;2023-08-08T03:34:43;12.40;99.90
15991;DHT22;8100;50.994;4.538;2023-08-08T03:37:30;12.70;99.90
15991;DHT22;8100;50.994;4.538;2023-08-08T03:40:19;12.60;99.90
15991;DHT22;8100;50.994;4.538;2023-08-08T03:43:06;12.60;99.90
15991;DHT22;8100;50.994;4.538;2023-08-08T03:45:54;12.60;99.90
15991;DHT22;8100;50.994;4.538;2023-08-08T03:48:41;12.60;99.90
15991;DHT22;8100;50.994;4.538;2023-08-08T03:51:28;12.60;99.90
15991;DHT22;8100;50.994;4.538;2023-08-08T03:54:16;12.60;99.90
15991;DHT22;8100;50.994;4.538;2023-08-08T03:57:05;12.40;99.90
15991;DHT22;8100;50.994;4.538;2023-08-08T03:59:52;12.60;99.90
15991;DHT22;8100;50.994;4.538;2023-08-08T04:02:40;12.50;99.90
15991;DHT22;8100;50.994;4.538;2023-08-08T04:05:27;12.60;99.90
15991;DHT22;8100;50.994;4.538;2023-08-08T04:08:15;12.30;99.90
15991;DHT22;8100;50.994;4.538;2023-08-08T04:11:02;12.60;99.90
15991;DHT22;8100;50.994;4.538;2023-08-08T04:13:51;12.50;99.90
15991;DHT22;8100;50.994;4.538;2023-08-08T04:16:38;12.20;99.90
15991;DHT22;8100;50.994;4.538;2023-08-08T04:19:26;12.60;99.90
15991;DHT22;8100;50.994;4.538;2023-08-08T04:22:13;12.60;99.90
15991;DHT22;8100;50.994;4.538;2023-08-08T04:25:01;12.50;99.90
15991;DHT22;8100;50.994;4.538;2023-08-08T04:27:49;12.30;99.90
15991;DHT22;8100;50.994;4.538;2023-08-08T04:30:37;12.60;99.90
15991;DHT22;8100;50.994;4.538;2023-08-08T04:33:25;12.40;99.90
15991;DHT22;8100;50.994;4.538;2023-08-08T04:36:12;12.60;99.90
15991;DHT22;8100;50.994;4.538;2023-08-08T04:38:59;12.60;99.90
15991;DHT22;8100;50.994;4.538;2023-08-08T04:41:47;12.60;99.90
15991;DHT22;8100;50.994;4.538;2023-08-08T04:44:34;12.40;99.90
15991;DHT22;8100;50.994;4.538;2023-08-08T04:47:23;12.40;99.90
15991;DHT22;8100;50.994;4.538;2023-08-08T04:50:10;12.60;99.90
15991;DHT22;8100;50.994;4.538;2023-08-08T04:52:57;12.80;99.90
15991;DHT22;8100;50.994;4.538;2023-08-08T04:55:44;12.80;99.90
15991;DHT22;8100;50.994;4.538;2023-08-08T04:58:32;12.60;99.90
15991;DHT22;8100;50.994;4.538;2023-08-08T05:01:19;12.90;99.90
15991;DHT22;8100;50.994;4.538;2023-08-08T05:04:09;13.00;99.90
15991;DHT22;8100;50.994;4.538;2023-08-08T05:06:56;13.10;99.90
15991;DHT22;8100;50.994;4.538;2023-08-08T05:09:44;13.10;99.90
15991;DHT22;8100;50.994;4.538;2023-08-08T05:12:31;12.90;99.90
15991;DHT22;8100;50.994;4.538;2023-08-08T05:15:19;12.90;99.90
15991;DHT22;8100;50.994;4.538;2023-08-08T05:18:06;12.90;99.90
15991;DHT22;8100;50.994;4.538;2023-08-08T05:20:55;12.90;99.90
15991;DHT22;8100;50.994;4.538;2023-08-08T05:23:42;13.00;99.90
15991;DHT22;8100;50.994;4.538;2023-08-08T05:26:29;13.00;99.90
15991;DHT22;8100;50.994;4.538;2023-08-08T05:29:17;13.30;99.90
15991;DHT22;8100;50.994;4.538;2023-08-08T05:32:05;13.30;99.90
15991;DHT22;8100;50.994;4.538;2023-08-08T05:34:52;13.30;99.90
15991;DHT22;8100;50.994;4.538;2023-08-08T05:37:42;13.50;99.90
15991;DHT22;8100;50.994;4.538;2023-08-08T05:40:30;13.50;99.90
15991;DHT22;8100;50.994;4.538;2023-08-08T05:43:17;13.40;99.90
15991;DHT22;8100;50.994;4.538;2023-08-08T05:46:05;13.50;99.90
15991;DHT22;8100;50.994;4.538;2023-08-08T05:48:52;13.80;99.90
15991;DHT22;8100;50.994;4.538;2023-08-08T05:51:40;13.70;99.90
15991;DHT22;8100;50.994;4.538;2023-08-08T05:54:29;13.80;99.90
15991;DHT22;8100;50.994;4.538;2023-08-08T05:57:16;13.90;99.90
15991;DHT22;8100;50.994;4.538;2023-08-08T06:00:04;13.70;99.90
15991;DHT22;8100;50.994;4.538;2023-08-08T06:02:54;13.80;99.90
15991;DHT22;8100;50.994;4.538;2023-08-08T06:05:42;14.00;99.90
15991;DHT22;8100;50.994;4.538;2023-08-08T06:08:29;14.30;99.90
15991;DHT22;8100;50.994;4.538;2023-08-08T06:11:18;14.20;99.90
15991;DHT22;8100;50.994;4.538;2023-08-08T06:14:06;14.30;99.90
15991;DHT22;8100;50.994;4.538;2023-08-08T06:16:53;14.20;99.90
15991;DHT22;8100;50.994;4.538;2023-08-08T06:19:40;14.40;99.90
15991;DHT22;8100;50.994;4.538;2023-08-08T06:22:28;14.30;99.90
15991;DHT22;8100;50.994;4.538;2023-08-08T06:25:15;14.20;99.90
15991;DHT22;8100;50.994;4.538;2023-08-08T06:28:05;14.10;99.90
15991;DHT22;8100;50.994;4.538;2023-08-08T06:30:53;14.20;99.90
15991;DHT22;8100;50.994;4.538;2023-08-08T06:33:40;14.20;99.90
15991;DHT22;8100;50.994;4.538;2023-08-08T06:36:27;14.20;99.90
15991;DHT22;8100;50.994;4.538;2023-08-08T06:39:14;14.30;99.90
15991;DHT22;8100;50.994;4.538;2023-08-08T06:42:02;14.50;99.90
15991;DHT22;8100;50.994;4.538;2023-08-08T06:44:51;14.60;99.90
15991;DHT22;8100;50.994;4.538;2023-08-08T06:47:38;14.70;99.90
15991;DHT22;8100;50.994;4.538;2023-08-08T06:50:25;15.00;99.90
15991;DHT22;8100;50.994;4.538;2023-08-08T06:53:13;15.10;99.90
15991;DHT22;8100;50.994;4.538;2023-08-08T06:56:00;15.20;99.90
15991;DHT22;8100;50.994;4.538;2023-08-08T06:58:47;15.30;99.90
15991;DHT22;8100;50.994;4.538;2023-08-08T07:01:36;15.50;99.90
15991;DHT22;8100;50.994;4.538;2023-08-08T07:04:23;15.60;99.90
15991;DHT22;8100;50.994;4.538;2023-08-08T07:07:11;15.60;99.90
15991;DHT22;8100;50.994;4.538;2023-08-08T07:09:58;15.70;99.90
15991;DHT22;8100;50.994;4.538;2023-08-08T07:12:46;15.70;99.90
15991;DHT22;8100;50.994;4.538;2023-08-08T07:15:33;15.80;99.90
15991;DHT22;8100;50.994;4.538;2023-08-08T07:18:22;15.90;99.90
15991;DHT22;8100;50.994;4.538;2023-08-08T07:21:09;15.80;99.90
15991;DHT22;8100;50.994;4.538;2023-08-08T07:23:56;15.80;99.90
15991;DHT22;8100;50.994;4.538;2023-08-08T07:26:44;15.80;99.90
15991;DHT22;8100;50.994;4.538;2023-08-08T07:29:31;15.90;99.90
15991;DHT22;8100;50.994;4.538;2023-08-08T07:32:18;16.10;99.90
15991;DHT22;8100;50.994;4.538;2023-08-08T07:35:07;16.30;99.90
15991;DHT22;8100;50.994;4.538;2023-08-08T07:37:55;16.40;99.90
15991;DHT22;8100;50.994;4.538;2023-08-08T07:40:42;16.30;99.90
15991;DHT22;8100;50.994;4.538;2023-08-08T07:43:29;16.20;99.90
15991;DHT22;8100;50.994;4.538;2023-08-08T07:46:16;16.30;99.90
15991;DHT22;8100;50.994;4.538;2023-08-08T07:49:04;16.40;99.90
15991;DHT22;8100;50.994;4.538;2023-08-08T07:51:53;16.40;99.90
15991;DHT22;8100;50.994;4.538;2023-08-08T07:54:41;16.40;99.90
15991;DHT22;8100;50.994;4.538;2023-08-08T07:57:28;16.60;99.90
15991;DHT22;8100;50.994;4.538;2023-08-08T08:00:17;16.60;99.90
15991;DHT22;8100;50.994;4.538;2023-08-08T08:03:04;16.70;99.90
15991;DHT22;8100;50.994;4.538;2023-08-08T08:05:52;16.60;99.90
15991;DHT22;8100;50.994;4.538;2023-08-08T08:08:41;16.70;99.90
15991;DHT22;8100;50.994;4.538;2023-08-08T08:11:28;16.70;99.90
15991;DHT22;8100;50.994;4.538;2023-08-08T08:14:15;16.60;99.90
15991;DHT22;8100;50.994;4.538;2023-08-08T08:17:03;16.60;99.90
15991;DHT22;8100;50.994;4.538;2023-08-08T08:19:50;16.50;99.90
15991;DHT22;8100;50.994;4.538;2023-08-08T08:22:38;16.60;99.90
15991;DHT22;8100;50.994;4.538;2023-08-08T08:25:26;16.60;99.90
15991;DHT22;8100;50.994;4.538;2023-08-08T08:28:14;16.60;99.90
15991;DHT22;8100;50.994;4.538;2023-08-08T08:31:04;16.90;99.90
15991;DHT22;8100;50.994;4.538;2023-08-08T08:33:52;16.70;99.90
15991;DHT22;8100;50.994;4.538;2023-08-08T08:36:41;16.70;99.90
15991;DHT22;8100;50.994;4.538;2023-08-08T08:39:28;16.70;99.90
15991;DHT22;8100;50.994;4.538;2023-08-08T08:42:17;16.60;99.90
15991;DHT22;8100;50.994;4.538;2023-08-08T08:45:05;16.90;99.90
15991;DHT22;8100;50.994;4.538;2023-08-08T08:47:56;17.00;99.90
15991;DHT22;8100;50.994;4.538;2023-08-08T08:50:44;17.00;99.90
15991;DHT22;8100;50.994;4.538;2023-08-08T08:53:32;17.10;99.90
15991;DHT22;8100;50.994;4.538;2023-08-08T08:56:24;17.20;99.90
15991;DHT22;8100;50.994;4.538;2023-08-08T08:59:14;17.20;99.90
15991;DHT22;8100;50.994;4.538;2023-08-08T09:02:01;17.10;99.90
15991;DHT22;8100;50.994;4.538;2023-08-08T09:04:49;17.30;99.90
15991;DHT22;8100;50.994;4.538;2023-08-08T09:07:37;17.40;99.90
15991;DHT22;8100;50.994;4.538;2023-08-08T09:10:24;17.50;99.90
15991;DHT22;8100;50.994;4.538;2023-08-08T09:13:12;17.50;99.90
15991;DHT22;8100;50.994;4.538;2023-08-08T09:16:00;17.40;99.90
15991;DHT22;8100;50.994;4.538;2023-08-08T09:18:47;17.50;99.90
15991;DHT22;8100;50.994;4.538;2023-08-08T09:21:35;17.80;99.90
15991;DHT22;8100;50.994;4.538;2023-08-08T09:24:22;18.00;99.90
15991;DHT22;8100;50.994;4.538;2023-08-08T09:27:10;18.20;99.90
15991;DHT22;8100;50.994;4.538;2023-08-08T09:29:57;18.30;99.90
15991;DHT22;8100;50.994;4.538;2023-08-08T09:32:46;18.50;99.90
15991;DHT22;8100;50.994;4.538;2023-08-08T09:35:33;18.30;99.90
15991;DHT22;8100;50.994;4.538;2023-08-08T09:38:21;18.30;99.90
15991;DHT22;8100;50.994;4.538;2023-08-08T09:41:08;18.40;99.90
15991;DHT22;8100;50.994;4.538;2023-08-08T09:43:55;18.20;99.90
15991;DHT22;8100;50.994;4.538;2023-08-08T09:46:43;18.10;99.90
15991;DHT22;8100;50.994;4.538;2023-08-08T09:49:32;18.00;99.90
15991;DHT22;8100;50.994;4.538;2023-08-08T09:52:20;17.90;99.90
15991;DHT22;8100;50.994;4.538;2023-08-08T09:55:08;17.80;99.90
15991;DHT22;8100;50.994;4.538;2023-08-08T09:57:57;17.80;99.90
15991;DHT22;8100;50.994;4.538;2023-08-08T10:00:45;17.70;99.90
15991;DHT22;8100;50.994;4.538;2023-08-08T10:03:33;17.60;99.90
15991;DHT22;8100;50.994;4.538;2023-08-08T10:06:23;17.70;99.90
15991;DHT22;8100;50.994;4.538;2023-08-08T10:09:12;17.90;99.90
15991;DHT22;8100;50.994;4.538;2023-08-08T10:11:59;18.00;99.90
15991;DHT22;8100;50.994;4.538;2023-08-08T10:14:47;18.20;99.90
15991;DHT22;8100;50.994;4.538;2023-08-08T10:17:36;18.10;99.90
15991;DHT22;8100;50.994;4.538;2023-08-08T10:20:24;18.10;99.90
15991;DHT22;8100;50.994;4.538;2023-08-08T10:23:14;17.80;99.90
15991;DHT22;8100;50.994;4.538;2023-08-08T10:26:02;17.60;99.90
15991;DHT22;8100;50.994;4.538;2023-08-08T10:28:54;17.50;99.90
15991;DHT22;8100;50.994;4.538;2023-08-08T10:31:51;17.50;99.90
15991;DHT22;8100;50.994;4.538;2023-08-08T10:34:40;17.50;99.90
15991;DHT22;8100;50.994;4.538;2023-08-08T10:37:27;17.70;99.90
15991;DHT22;8100;50.994;4.538;2023-08-08T10:40:17;17.60;99.90
15991;DHT22;8100;50.994;4.538;2023-08-08T10:43:11;17.50;99.90
15991;DHT22;8100;50.994;4.538;2023-08-08T10:46:00;17.40;99.90
15991;DHT22;8100;50.994;4.538;2023-08-08T10:48:52;17.40;99.90
15991;DHT22;8100;50.994;4.538;2023-08-08T10:51:40;17.80;99.90
15991;DHT22;8100;50.994;4.538;2023-08-08T10:54:31;18.20;99.90
15991;DHT22;8100;50.994;4.538;2023-08-08T10:57:25;18.70;99.90
15991;DHT22;8100;50.994;4.538;2023-08-08T11:00:18;19.00;99.90
15991;DHT22;8100;50.994;4.538;2023-08-08T11:03:06;19.20;99.90
15991;DHT22;8100;50.994;4.538;2023-08-08T11:05:54;19.30;99.90
15991;DHT22;8100;50.994;4.538;2023-08-08T11:08:42;19.80;99.90
15991;DHT22;8100;50.994;4.538;2023-08-08T11:11:36;19.90;99.90
15991;DHT22;8100;50.994;4.538;2023-08-08T11:14:25;19.30;99.90
15991;DHT22;8100;50.994;4.538;2023-08-08T11:17:12;19.00;99.90
15991;DHT22;8100;50.994;4.538;2023-08-08T11:20:00;18.80;99.90
15991;DHT22;8100;50.994;4.538;2023-08-08T11:22:51;18.70;99.90
15991;DHT22;8100;50.994;4.538;2023-08-08T11:25:40;18.70;99.90
15991;DHT22;8100;50.994;4.538;2023-08-08T11:28:28;19.20;99.90
15991;DHT22;8100;50.994;4.538;2023-08-08T11:31:18;19.40;99.90
15991;DHT22;8100;50.994;4.538;2023-08-08T11:34:05;19.40;99.90
15991;DHT22;8100;50.994;4.538;2023-08-08T11:36:52;19.40;99.90
15991;DHT22;8100;50.994;4.538;2023-08-08T11:39:41;19.60;99.90
15991;DHT22;8100;50.994;4.538;2023-08-08T11:42:29;19.60;99.90
15991;DHT22;8100;50.994;4.538;2023-08-08T11:45:16;19.10;99.90
15991;DHT22;8100;50.994;4.538;2023-08-08T11:48:08;18.70;99.90
15991;DHT22;8100;50.994;4.538;2023-08-08T11:50:56;18.70;99.90
15991;DHT22;8100;50.994;4.538;2023-08-08T11:53:51;18.80;99.90
15991;DHT22;8100;50.994;4.538;2023-08-08T11:56:39;19.00;99.90
15991;DHT22;8100;50.994;4.538;2023-08-08T11:59:26;19.30;99.90
15991;DHT22;8100;50.994;4.538;2023-08-08T12:02:14;19.70;99.90
15991;DHT22;8100;50.994;4.538;2023-08-08T12:05:09;20.10;99.90
15991;DHT22;8100;50.994;4.538;2023-08-08T12:07:58;19.80;99.90
15991;DHT22;8100;50.994;4.538;2023-08-08T12:10:48;19.60;99.90
15991;DHT22;8100;50.994;4.538;2023-08-08T12:13:38;19.50;99.90
15991;DHT22;8100;50.994;4.538;2023-08-08T12:16:28;19.60;99.90
15991;DHT22;8100;50.994;4.538;2023-08-08T12:19:15;19.80;99.90
15991;DHT22;8100;50.994;4.538;2023-08-08T12:22:08;19.90;99.90
15991;DHT22;8100;50.994;4.538;2023-08-08T12:24:56;20.10;99.90
15991;DHT22;8100;50.994;4.538;2023-08-08T12:27:43;19.90;99.90
15991;DHT22;8100;50.994;4.538;2023-08-08T12:30:30;19.90;99.90
15991;DHT22;8100;50.994;4.538;2023-08-08T12:33:18;20.10;99.90
15991;DHT22;8100;50.994;4.538;2023-08-08T12:36:06;19.80;99.90
15991;DHT22;8100;50.994;4.538;2023-08-08T12:38:54;19.90;99.90
15991;DHT22;8100;50.994;4.538;2023-08-08T12:41:42;20.20;99.90
15991;DHT22;8100;50.994;4.538;2023-08-08T12:44:29;20.20;99.90
15991;DHT22;8100;50.994;4.538;2023-08-08T12:47:17;20.30;99.90
15991;DHT22;8100;50.994;4.538;2023-08-08T12:50:05;20.60;99.90
15991;DHT22;8100;50.994;4.538;2023-08-08T12:52:52;20.30;99.90
15991;DHT22;8100;50.994;4.538;2023-08-08T12:55:41;19.90;99.90
15991;DHT22;8100;50.994;4.538;2023-08-08T12:58:28;19.80;99.90
15991;DHT22;8100;50.994;4.538;2023-08-08T13:01:16;20.00;99.90
15991;DHT22;8100;50.994;4.538;2023-08-08T13:04:04;20.20;99.90
15991;DHT22;8100;50.994;4.538;2023-08-08T13:06:51;20.50;99.90
15991;DHT22;8100;50.994;4.538;2023-08-08T13:09:38;20.90;99.90
15991;DHT22;8100;50.994;4.538;2023-08-08T13:12:27;21.40;99.90
15991;DHT22;8100;50.994;4.538;2023-08-08T13:15:15;21.50;99.90
15991;DHT22;8100;50.994;4.538;2023-08-08T13:18:02;20.80;99.90
15991;DHT22;8100;50.994;4.538;2023-08-08T13:20:49;20.60;99.90
15991;DHT22;8100;50.994;4.538;2023-08-08T13:23:37;20.30;99.90
15991;DHT22;8100;50.994;4.538;2023-08-08T13:26:24;20.10;99.90
15991;DHT22;8100;50.994;4.538;2023-08-08T13:29:13;20.00;99.90
15991;DHT22;8100;50.994;4.538;2023-08-08T13:32:00;20.40;99.90
15991;DHT22;8100;50.994;4.538;2023-08-08T13:34:48;20.30;99.90
15991;DHT22;8100;50.994;4.538;2023-08-08T13:37:35;20.30;99.90
15991;DHT22;8100;50.994;4.538;2023-08-08T13:40:22;20.30;99.90
15991;DHT22;8100;50.994;4.538;2023-08-08T13:43:10;20.20;99.90
15991;DHT22;8100;50.994;4.538;2023-08-08T13:45:58;20.20;99.90
15991;DHT22;8100;50.994;4.538;2023-08-08T13:48:46;21.00;99.90
15991;DHT22;8100;50.994;4.538;2023-08-08T13:51:33;20.90;99.90
15991;DHT22;8100;50.994;4.538;2023-08-08T13:54:20;20.90;99.90
15991;DHT22;8100;50.994;4.538;2023-08-08T13:57:08;20.60;99.90
15991;DHT22;8100;50.994;4.538;2023-08-08T13:59:55;20.50;99.90
15991;DHT22;8100;50.994;4.538;2023-08-08T14:02:44;20.30;99.90
15991;DHT22;8100;50.994;4.538;2023-08-08T14:05:31;20.20;99.90
15991;DHT22;8100;50.994;4.538;2023-08-08T14:08:19;20.30;99.90
15991;DHT22;8100;50.994;4.538;2023-08-08T14:11:06;20.80;99.90
15991;DHT22;8100;50.994;4.538;2023-08-08T14:13:53;21.10;99.90
15991;DHT22;8100;50.994;4.538;2023-08-08T14:16:41;21.20;99.90
15991;DHT22;8100;50.994;4.538;2023-08-08T14:19:29;20.80;99.90
15991;DHT22;8100;50.994;4.538;2023-08-08T14:22:16;20.30;99.90
15991;DHT22;8100;50.994;4.538;2023-08-08T14:25:04;20.00;99.90
15991;DHT22;8100;50.994;4.538;2023-08-08T14:27:52;20.20;99.90
15991;DHT22;8100;50.994;4.538;2023-08-08T14:30:40;20.20;99.90
15991;DHT22;8100;50.994;4.538;2023-08-08T14:33:27;20.20;99.90
15991;DHT22;8100;50.994;4.538;2023-08-08T14:36:16;20.20;99.90
15991;DHT22;8100;50.994;4.538;2023-08-08T14:39:04;19.90;99.90
15991;DHT22;8100;50.994;4.538;2023-08-08T14:41:51;19.70;99.90
15991;DHT22;8100;50.994;4.538;2023-08-08T14:44:38;19.30;99.90
15991;DHT22;8100;50.994;4.538;2023-08-08T14:47:26;19.30;99.90
15991;DHT22;8100;50.994;4.538;2023-08-08T14:50:13;19.30;99.90
15991;DHT22;8100;50.994;4.538;2023-08-08T14:53:02;19.40;99.90
15991;DHT22;8100;50.994;4.538;2023-08-08T14:55:49;19.20;99.90
15991;DHT22;8100;50.994;4.538;2023-08-08T14:58:37;19.20;99.90
15991;DHT22;8100;50.994;4.538;2023-08-08T15:01:24;19.30;99.90
15991;DHT22;8100;50.994;4.538;2023-08-08T15:04:11;19.40;99.90
15991;DHT22;8100;50.994;4.538;2023-08-08T15:06:59;19.30;99.90
15991;DHT22;8100;50.994;4.538;2023-08-08T15:09:47;19.10;99.90
15991;DHT22;8100;50.994;4.538;2023-08-08T15:12:35;19.20;99.90
15991;DHT22;8100;50.994;4.538;2023-08-08T15:15:23;19.10;99.90
15991;DHT22;8100;50.994;4.538;2023-08-08T15:18:11;19.00;99.90
15991;DHT22;8100;50.994;4.538;2023-08-08T15:20:59;19.00;99.90
15991;DHT22;8100;50.994;4.538;2023-08-08T15:23:47;19.00;99.90
15991;DHT22;8100;50.994;4.538;2023-08-08T15:26:36;19.00;99.90
15991;DHT22;8100;50.994;4.538;2023-08-08T15:29:23;19.10;99.90
15991;DHT22;8100;50.994;4.538;2023-08-08T15:32:10;19.10;99.90
15991;DHT22;8100;50.994;4.538;2023-08-08T15:34:58;19.00;99.90
15991;DHT22;8100;50.994;4.538;2023-08-08T15:37:45;18.90;99.90
15991;DHT22;8100;50.994;4.538;2023-08-08T15:40:32;18.80;99.90
15991;DHT22;8100;50.994;4.538;2023-08-08T15:43:21;18.80;99.90
15991;DHT22;8100;50.994;4.538;2023-08-08T15:46:09;18.80;99.90
15991;DHT22;8100;50.994;4.538;2023-08-08T15:48:57;18.60;99.90
15991;DHT22;8100;50.994;4.538;2023-08-08T15:51:45;18.60;99.90
15991;DHT22;8100;50.994;4.538;2023-08-08T15:54:32;18.50;99.90
15991;DHT22;8100;50.994;4.538;2023-08-08T15:57:19;18.30;99.90
15991;DHT22;8100;50.994;4.538;2023-08-08T16:00:10;18.30;99.90
15991;DHT22;8100;50.994;4.538;2023-08-08T16:02:57;18.30;99.90
15991;DHT22;8100;50.994;4.538;2023-08-08T16:05:45;18.30;99.90
15991;DHT22;8100;50.994;4.538;2023-08-08T16:08:32;18.40;99.90
15991;DHT22;8100;50.994;4.538;2023-08-08T16:11:19;18.50;99.90
15991;DHT22;8100;50.994;4.538;2023-08-08T16:14:07;18.40;99.90
15991;DHT22;8100;50.994;4.538;2023-08-08T16:16:56;18.40;99.90
15991;DHT22;8100;50.994;4.538;2023-08-08T16:19:43;18.20;99.90
15991;DHT22;8100;50.994;4.538;2023-08-08T16:22:30;18.10;99.90
15991;DHT22;8100;50.994;4.538;2023-08-08T16:25:18;18.00;99.90
15991;DHT22;8100;50.994;4.538;2023-08-08T16:28:05;18.00;99.90
15991;DHT22;8100;50.994;4.538;2023-08-08T16:30:52;18.10;99.90
15991;DHT22;8100;50.994;4.538;2023-08-08T16:33:41;18.00;99.90
15991;DHT22;8100;50.994;4.538;2023-08-08T16:36:29;17.50;99.90
15991;DHT22;8100;50.994;4.538;2023-08-08T16:39:16;16.90;99.90
15991;DHT22;8100;50.994;4.538;2023-08-08T16:42:03;16.70;99.90
15991;DHT22;8100;50.994;4.538;2023-08-08T16:44:51;16.40;99.90
15991;DHT22;8100;50.994;4.538;2023-08-08T16:47:38;16.40;99.90
15991;DHT22;8100;50.994;4.538;2023-08-08T16:50:27;16.30;99.90
15991;DHT22;8100;50.994;4.538;2023-08-08T16:53:14;16.20;99.90
15991;DHT22;8100;50.994;4.538;2023-08-08T16:56:02;16.10;99.90
15991;DHT22;8100;50.994;4.538;2023-08-08T16:58:52;16.20;99.90
15991;DHT22;8100;50.994;4.538;2023-08-08T17:01:40;16.30;99.90
15991;DHT22;8100;50.994;4.538;2023-08-08T17:04:29;16.40;99.90
15991;DHT22;8100;50.994;4.538;2023-08-08T17:07:19;16.50;99.90
15991;DHT22;8100;50.994;4.538;2023-08-08T17:10:06;16.50;99.90
15991;DHT22;8100;50.994;4.538;2023-08-08T17:12:54;16.50;99.90
15991;DHT22;8100;50.994;4.538;2023-08-08T17:15:41;16.50;99.90
15991;DHT22;8100;50.994;4.538;2023-08-08T17:18:31;16.40;99.90
15991;DHT22;8100;50.994;4.538;2023-08-08T17:21:18;16.20;99.90
15991;DHT22;8100;50.994;4.538;2023-08-08T17:24:07;16.20;99.90
15991;DHT22;8100;50.994;4.538;2023-08-08T17:26:54;15.90;99.90
15991;DHT22;8100;50.994;4.538;2023-08-08T17:29:41;16.00;99.90
15991;DHT22;8100;50.994;4.538;2023-08-08T17:32:29;16.10;99.90
15991;DHT22;8100;50.994;4.538;2023-08-08T17:35:17;15.90;99.90
15991;DHT22;8100;50.994;4.538;2023-08-08T17:38:04;15.80;99.90
15991;DHT22;8100;50.994;4.538;2023-08-08T17:40:53;16.00;99.90
15991;DHT22;8100;50.994;4.538;2023-08-08T17:43:40;16.00;99.90
15991;DHT22;8100;50.994;4.538;2023-08-08T17:46:27;16.00;99.90
15991;DHT22;8100;50.994;4.538;2023-08-08T17:49:15;15.70;99.90
15991;DHT22;8100;50.994;4.538;2023-08-08T17:52:03;15.70;99.90
15991;DHT22;8100;50.994;4.538;2023-08-08T17:54:50;15.70;99.90
15991;DHT22;8100;50.994;4.538;2023-08-08T17:57:39;15.90;99.90